createdAt,value
2019-05-07T00:00:04.546Z,63.90
2019-05-07T00:02:36.590Z,63.80
2019-05-07T00:05:11.966Z,63.80
2019-05-07T00:07:43.502Z,63.80
2019-05-07T00:10:16.091Z,64.00
2019-05-07T00:12:46.473Z,64.00
2019-05-07T00:15:18.734Z,64.50
2019-05-07T00:17:52.225Z,64.50
2019-05-07T00:20:24.621Z,64.40
2019-05-07T00:22:54.512Z,64.50
2019-05-07T00:25:29.963Z,64.40
2019-05-07T00:28:02.793Z,64.40
2019-05-07T00:30:36.869Z,63.90
2019-05-07T00:33:14.561Z,64.20
2019-05-07T00:35:53.071Z,64.30
2019-05-07T00:38:26.331Z,63.80
2019-05-07T00:41:18.107Z,64.00
2019-05-07T00:43:52.486Z,63.90
2019-05-07T00:46:33.324Z,64.30
2019-05-07T00:49:04.256Z,64.40
2019-05-07T00:51:35.924Z,64.60
2019-05-07T00:54:07.367Z,64.80
2019-05-07T00:56:45.963Z,64.50
2019-05-07T00:59:18.236Z,64.40
2019-05-07T01:01:56.203Z,64.10
2019-05-07T01:04:27.325Z,64.00
2019-05-07T01:07:02.981Z,64.30
2019-05-07T01:09:34.099Z,64.20
2019-05-07T01:12:05.756Z,64.90
2019-05-07T01:14:38.416Z,65.00
2019-05-07T01:17:13.025Z,65.00
2019-05-07T01:19:44.682Z,65.50
2019-05-07T01:22:15.444Z,65.80
2019-05-07T01:24:47.354Z,66.00
2019-05-07T01:27:17.824Z,65.90
2019-05-07T01:29:55.408Z,65.90
2019-05-07T01:32:42.525Z,65.50
2019-05-07T01:35:22.418Z,65.00
2019-05-07T01:37:54.651Z,64.90
2019-05-07T01:40:25.720Z,65.20
2019-05-07T01:42:59.679Z,65.10
2019-05-07T01:45:43.165Z,65.00
2019-05-07T01:48:04.479Z,65.40
2019-05-07T01:50:38.135Z,65.50
2019-05-07T01:53:12.264Z,65.50
2019-05-07T01:55:47.498Z,65.80
2019-05-07T01:58:21.996Z,65.70
2019-05-07T02:00:54.366Z,65.60
2019-05-07T02:03:33.581Z,64.80
2019-05-07T02:06:13.161Z,64.30
2019-05-07T02:09:04.325Z,64.80
2019-05-07T02:11:42.136Z,64.80
2019-05-07T02:14:13.740Z,65.40
2019-05-07T02:16:46.241Z,65.90
2019-05-07T02:19:17.067Z,65.90
2019-05-07T02:21:50.001Z,66.40
2019-05-07T02:24:21.985Z,66.40
2019-05-07T02:26:53.215Z,66.10
2019-05-07T02:29:23.769Z,65.70
2019-05-07T02:31:56.749Z,65.50
2019-05-07T02:34:28.333Z,66.10
2019-05-07T02:36:59.981Z,65.50
2019-05-07T02:39:53.212Z,65.00
2019-05-07T02:42:24.244Z,65.00
2019-05-07T02:45:07.493Z,65.20
2019-05-07T02:47:38.894Z,65.40
2019-05-07T02:50:18.201Z,65.50
2019-05-07T02:53:05.286Z,65.50
2019-05-07T02:55:43.630Z,65.60
2019-05-07T02:58:18.262Z,65.90
2019-05-07T03:00:52.921Z,66.10
2019-05-07T03:03:24.817Z,66.40
2019-05-07T03:05:56.577Z,66.80
2019-05-07T03:08:27.715Z,66.70
2019-05-07T03:10:59.184Z,66.80
2019-05-07T03:13:33.726Z,66.80
2019-05-07T03:16:04.576Z,66.70
2019-05-07T03:18:35.412Z,66.80
2019-05-07T03:21:17.133Z,66.90
2019-05-07T03:24:07.336Z,67.00
2019-05-07T03:26:43.476Z,66.80
2019-05-07T03:29:19.692Z,67.00
2019-05-07T03:31:57.173Z,67.10
2019-05-07T03:34:56.917Z,67.10
2019-05-07T03:37:27.251Z,67.10
2019-05-07T03:39:59.166Z,67.30
2019-05-07T03:42:33.798Z,67.10
2019-05-07T03:45:14.685Z,67.20
2019-05-07T03:47:48.470Z,67.40
2019-05-07T03:50:23.304Z,67.50
2019-05-07T03:52:54.351Z,67.60
2019-05-07T03:55:25.627Z,67.50
2019-05-07T03:57:57.163Z,67.70
2019-05-07T04:00:27.796Z,67.60
2019-05-07T04:02:58.852Z,67.60
2019-05-07T04:05:28.881Z,67.90
2019-05-07T04:08:03.296Z,68.20
2019-05-07T04:10:33.871Z,68.10
2019-05-07T04:13:05.152Z,67.90
2019-05-07T04:15:35.683Z,68.00
2019-05-07T04:18:06.676Z,68.10
2019-05-07T04:20:37.724Z,68.20
2019-05-07T04:23:08.176Z,68.20
2019-05-07T04:25:58.014Z,67.80
2019-05-07T04:28:47.667Z,67.70
2019-05-07T04:31:17.896Z,67.40
2019-05-07T04:33:47.901Z,67.40
2019-05-07T04:36:29.737Z,67.60
2019-05-07T04:39:03.039Z,67.80
2019-05-07T04:41:35.188Z,68.00
2019-05-07T04:44:07.690Z,68.20
2019-05-07T04:46:38.079Z,68.60
2019-05-07T04:49:08.909Z,68.80
2019-05-07T04:51:48.203Z,69.00
2019-05-07T04:54:25.944Z,68.90
2019-05-07T04:57:03.773Z,68.80
2019-05-07T04:59:34.362Z,68.80
2019-05-07T05:02:14.613Z,68.80
2019-05-07T05:04:46.784Z,68.80
2019-05-07T05:07:22.563Z,69.70
2019-05-07T05:09:53.294Z,69.10
2019-05-07T05:12:23.642Z,69.20
2019-05-07T05:14:54.479Z,69.20
2019-05-07T05:17:24.740Z,69.40
2019-05-07T05:19:56.028Z,69.60
2019-05-07T05:22:46.318Z,69.90
2019-05-07T05:25:28.289Z,70.00
2019-05-07T05:27:59.178Z,70.20
2019-05-07T05:30:43.733Z,70.00
2019-05-07T05:33:14.608Z,69.90
2019-05-07T05:35:46.178Z,69.50
2019-05-07T05:38:16.916Z,69.30
2019-05-07T05:40:51.876Z,68.90
2019-05-07T05:43:45.318Z,69.00
2019-05-07T05:46:16.352Z,69.20
2019-05-07T05:48:46.881Z,69.30
2019-05-07T05:51:32.199Z,69.30
2019-05-07T05:54:09.675Z,70.00
2019-05-07T05:56:55.494Z,70.00
2019-05-07T05:59:55.207Z,69.80
2019-05-07T06:02:44.207Z,69.50
2019-05-07T06:05:36.861Z,69.30
2019-05-07T06:08:34.103Z,69.20
2019-05-07T06:11:32.225Z,68.60
2019-05-07T06:14:23.992Z,67.90
2019-05-07T06:17:13.706Z,67.50
2019-05-07T06:20:02.946Z,66.40
2019-05-07T06:22:52.836Z,66.00
2019-05-07T06:25:24.853Z,66.50
2019-05-07T06:27:55.497Z,66.50
2019-05-07T06:30:25.758Z,66.90
2019-05-07T06:32:55.663Z,66.60
2019-05-07T06:35:26.324Z,65.90
2019-05-07T06:37:58.385Z,66.00
2019-05-07T06:40:53.234Z,65.60
2019-05-07T06:43:39.382Z,65.10
2019-05-07T06:46:09.527Z,64.30
2019-05-07T06:48:43.677Z,64.40
2019-05-07T06:51:13.844Z,64.30
2019-05-07T06:53:44.336Z,63.80
2019-05-07T06:56:15.442Z,63.80
2019-05-07T06:58:55.585Z,63.80
2019-05-07T07:01:42.307Z,64.10
2019-05-07T07:04:28.437Z,64.00
2019-05-07T07:07:29.904Z,63.70
2019-05-07T07:10:24.907Z,62.60
2019-05-07T07:12:55.727Z,61.90
2019-05-07T07:15:28.428Z,62.10
2019-05-07T07:17:59.191Z,61.70
2019-05-07T07:20:29.909Z,62.40
2019-05-07T07:23:02.361Z,62.40
2019-05-07T07:25:34.129Z,61.30
2019-05-07T07:28:08.076Z,59.70
2019-05-07T07:31:03.452Z,60.00
2019-05-07T07:33:36.928Z,59.80
2019-05-07T07:36:13.057Z,59.90
2019-05-07T07:38:44.971Z,59.00
2019-05-07T07:41:45.504Z,58.70
2019-05-07T07:44:16.312Z,58.90
2019-05-07T07:46:47.601Z,59.00
2019-05-07T07:49:18.381Z,58.80
2019-05-07T07:51:52.819Z,59.40
2019-05-07T07:54:25.426Z,59.00
2019-05-07T07:57:15.003Z,57.20
2019-05-07T08:00:06.348Z,57.40
2019-05-07T08:02:47.908Z,56.50
2019-05-07T08:05:18.153Z,56.70
2019-05-07T08:07:49.194Z,55.40
2019-05-07T08:10:22.136Z,54.40
2019-05-07T08:12:53.332Z,52.30
2019-05-07T08:15:24.890Z,52.30
2019-05-07T08:17:56.316Z,53.00
2019-05-07T08:20:28.121Z,51.90
2019-05-07T08:22:58.604Z,51.90
2019-05-07T08:25:48.562Z,53.30
2019-05-07T08:28:20.046Z,53.70
2019-05-07T08:34:43.982Z,52.20
2019-05-07T08:37:24.551Z,52.60
2019-05-07T08:40:03.070Z,51.10
2019-05-07T08:42:35.118Z,52.60
2019-05-07T08:45:29.793Z,51.30
2019-05-07T08:48:06.281Z,51.60
2019-05-07T08:50:37.510Z,50.80
2019-05-07T08:53:13.031Z,51.00
2019-05-07T08:55:43.967Z,51.70
2019-05-07T08:58:15.216Z,52.10
2019-05-07T09:00:46.734Z,52.30
2019-05-07T09:03:36.884Z,52.50
2019-05-07T09:06:11.690Z,52.50
2019-05-07T09:08:43.647Z,51.10
2019-05-07T09:11:17.382Z,51.70
2019-05-07T09:13:48.075Z,51.20
2019-05-07T09:16:19.422Z,52.50
2019-05-07T09:18:52.374Z,53.10
2019-05-07T09:25:13.141Z,47.50
2019-05-07T09:27:47.186Z,49.00
2019-05-07T09:30:43.920Z,47.50
2019-05-07T09:33:31.881Z,46.90
2019-05-07T09:36:03.072Z,47.20
2019-05-07T09:38:34.635Z,48.30
2019-05-07T09:41:08.134Z,48.20
2019-05-07T09:43:42.439Z,48.40
2019-05-07T09:46:13.211Z,46.50
2019-05-07T09:48:45.187Z,47.50
2019-05-07T09:51:16.206Z,47.00
2019-05-07T09:53:46.995Z,47.70
2019-05-07T09:56:18.223Z,46.90
2019-05-07T09:58:49.528Z,47.00
2019-05-07T10:01:21.085Z,48.50
2019-05-07T10:03:52.140Z,46.80
2019-05-07T10:06:24.491Z,46.40
2019-05-07T10:13:26.957Z,46.50
2019-05-07T10:16:00.411Z,45.30
2019-05-07T10:18:32.105Z,45.30
2019-05-07T10:21:06.233Z,46.60
2019-05-07T10:27:17.468Z,45.50
2019-05-07T10:29:50.183Z,45.50
2019-05-07T10:36:02.675Z,41.60
2019-05-07T10:38:36.524Z,42.70
2019-05-07T10:41:07.748Z,43.60
2019-05-07T10:43:38.596Z,41.30
2019-05-07T10:50:38.331Z,39.70
2019-05-07T10:53:05.702Z,41.60
2019-05-07T10:55:45.687Z,38.00
2019-05-07T11:02:19.492Z,39.10
2019-05-07T11:04:54.090Z,40.10
2019-05-07T11:07:27.353Z,39.40
2019-05-07T11:10:01.970Z,38.90
2019-05-07T11:18:48.038Z,38.20
2019-05-07T11:21:39.307Z,39.40
2019-05-07T11:24:12.088Z,36.30
2019-05-07T11:26:42.894Z,35.90
2019-05-07T11:29:15.752Z,35.80
2019-05-07T11:31:46.759Z,37.00
2019-05-07T11:34:17.779Z,35.00
2019-05-07T11:40:32.065Z,36.80
2019-05-07T11:43:29.288Z,34.80
2019-05-07T11:46:22.739Z,37.60
2019-05-07T11:55:11.909Z,33.60
2019-05-07T11:57:44.571Z,33.30
2019-05-07T12:00:39.469Z,32.80
2019-05-07T12:03:15.138Z,32.90
2019-05-07T12:08:52.159Z,33.60
2019-05-07T12:11:23.834Z,33.60
2019-05-07T12:14:01.871Z,35.70
2019-05-07T12:16:34.155Z,36.40
2019-05-07T12:19:12.390Z,35.10
2019-05-07T12:28:38.683Z,36.60
2019-05-07T12:31:27.207Z,35.20
2019-05-07T12:34:09.282Z,35.00
2019-05-07T12:36:40.516Z,34.60
2019-05-07T12:39:12.744Z,33.40
2019-05-07T12:45:08.026Z,34.60
2019-05-07T12:47:42.108Z,33.90
2019-05-07T12:50:13.963Z,33.80
2019-05-07T12:53:12.236Z,34.30
2019-05-07T12:55:56.436Z,34.30
2019-05-07T12:58:27.052Z,34.50
2019-05-07T13:01:08.051Z,36.40
2019-05-07T13:04:04.973Z,37.60
2019-05-07T13:06:40.682Z,36.30
2019-05-07T13:15:43.477Z,33.80
2019-05-07T13:18:15.253Z,32.70
2019-05-07T13:27:32.730Z,33.20
2019-05-07T13:30:04.593Z,33.20
2019-05-07T13:32:37.795Z,34.20
2019-05-07T13:35:09.392Z,34.90
2019-05-07T13:37:44.261Z,33.00
2019-05-07T13:40:27.540Z,34.40
2019-05-07T13:43:25.526Z,35.10
2019-05-07T13:46:07.705Z,34.20
2019-05-07T13:48:42.234Z,35.00
2019-05-07T13:51:13.038Z,36.10
2019-05-07T13:53:45.569Z,35.10
2019-05-07T13:56:18.061Z,33.20
2019-05-07T13:58:52.218Z,33.90
2019-05-07T14:08:34.577Z,33.50
2019-05-07T14:11:08.583Z,33.00
2019-05-07T14:13:43.488Z,34.70
2019-05-07T14:16:14.821Z,33.90
2019-05-07T14:18:49.571Z,35.20
2019-05-07T14:24:48.408Z,35.60
2019-05-07T14:27:22.694Z,36.50
2019-05-07T14:29:54.983Z,35.80
2019-05-07T14:32:45.558Z,34.50
2019-05-07T14:39:09.490Z,32.90
2019-05-07T14:41:42.753Z,33.60
2019-05-07T14:47:48.180Z,34.70
2019-05-07T14:50:22.615Z,33.80
2019-05-07T14:59:05.927Z,30.00
2019-05-07T15:01:36.648Z,30.00
2019-05-07T15:04:08.653Z,29.70
2019-05-07T15:06:41.556Z,28.90
2019-05-07T15:09:12.234Z,29.40
2019-05-07T15:18:54.605Z,29.30
2019-05-07T15:21:26.320Z,29.30
2019-05-07T15:23:57.771Z,29.10
2019-05-07T15:26:28.140Z,29.20
2019-05-07T15:35:31.975Z,28.10
2019-05-07T15:38:02.661Z,28.70
2019-05-07T15:40:39.539Z,28.20
2019-05-07T15:49:38.115Z,28.60
2019-05-07T15:52:15.070Z,28.00
2019-05-07T16:01:06.789Z,30.20
2019-05-07T16:03:42.895Z,30.50
2019-05-07T16:12:25.872Z,28.80
2019-05-07T16:14:58.988Z,28.90
2019-05-07T16:17:37.657Z,28.90
2019-05-07T16:20:08.279Z,29.90
2019-05-07T16:26:29.804Z,29.90
2019-05-07T16:29:04.742Z,31.80
2019-05-07T16:31:39.065Z,32.80
2019-05-07T16:34:13.204Z,31.70
2019-05-07T16:43:06.032Z,32.60
2019-05-07T16:45:42.273Z,31.90
2019-05-07T16:48:18.808Z,31.70
2019-05-07T16:54:16.092Z,32.20
2019-05-07T16:57:07.471Z,31.60
2019-05-07T16:59:42.570Z,31.30
2019-05-07T17:05:32.096Z,36.50
2019-05-07T17:08:28.832Z,32.60
2019-05-07T17:11:06.774Z,38.00
2019-05-07T17:13:39.117Z,39.60
2019-05-07T17:19:42.566Z,39.80
2019-05-07T17:22:15.291Z,35.00
2019-05-07T17:24:54.073Z,38.60
2019-05-07T17:27:26.303Z,41.20
2019-05-07T17:33:39.144Z,44.70
2019-05-07T17:36:12.118Z,46.40
2019-05-07T17:38:44.452Z,46.40
2019-05-07T17:45:12.999Z,47.20
2019-05-07T17:47:47.990Z,48.40
2019-05-07T17:53:56.802Z,47.90
2019-05-07T18:09:53.144Z,48.90
2019-05-07T18:12:25.146Z,50.20
2019-05-07T18:14:56.399Z,49.30
2019-05-07T18:21:32.423Z,50.00
2019-05-07T18:27:25.552Z,51.80
2019-05-07T18:29:54.983Z,51.30
2019-05-07T18:38:34.170Z,51.20
2019-05-07T18:41:06.033Z,52.60
2019-05-07T18:43:36.185Z,52.50
2019-05-07T18:46:12.626Z,53.60
2019-05-07T18:48:45.865Z,51.60
2019-05-07T18:51:17.107Z,52.80
2019-05-07T18:53:47.519Z,51.90
2019-05-07T19:02:32.038Z,54.00
2019-05-07T19:05:03.213Z,53.80
2019-05-07T19:07:34.302Z,53.30
2019-05-07T19:13:32.642Z,52.80
2019-05-07T19:16:05.772Z,53.80
2019-05-07T19:18:37.750Z,53.00
2019-05-07T19:24:45.312Z,54.20
2019-05-07T19:27:12.385Z,54.50
2019-05-07T19:29:45.879Z,54.80
2019-05-07T19:37:54.943Z,57.70
2019-05-07T19:40:29.295Z,58.50
2019-05-07T19:49:48.651Z,58.60
2019-05-07T19:52:19.486Z,58.10
2019-05-07T19:58:34.200Z,57.80
2019-05-07T20:01:05.635Z,56.90
2019-05-07T20:10:46.467Z,56.90
2019-05-07T20:16:49.928Z,55.50
2019-05-07T20:19:22.963Z,56.80
2019-05-07T20:21:55.423Z,56.50
2019-05-07T20:24:25.671Z,55.50
2019-05-07T20:30:28.054Z,56.20
2019-05-07T20:32:58.170Z,56.40
2019-05-07T20:35:28.824Z,56.90
2019-05-07T20:37:59.579Z,56.40
2019-05-07T20:40:31.875Z,56.90
2019-05-07T20:43:05.800Z,57.70
2019-05-07T20:45:36.553Z,57.90
2019-05-07T20:51:12.421Z,57.10
2019-05-07T20:54:23.025Z,56.80
2019-05-07T21:03:23.886Z,59.10
2019-05-07T21:12:05.051Z,57.60
2019-05-07T21:14:35.123Z,58.60
2019-05-07T21:17:05.122Z,58.90
2019-05-07T21:19:35.092Z,58.70
2019-05-07T21:22:06.219Z,58.20
2019-05-07T21:24:36.729Z,58.90
2019-05-07T21:30:33.571Z,56.50
2019-05-07T21:33:04.872Z,57.20
2019-05-07T21:35:35.922Z,58.00
2019-05-07T21:38:06.533Z,58.10
2019-05-07T21:40:36.698Z,57.70
2019-05-07T21:43:07.019Z,58.80
2019-05-07T21:45:38.010Z,58.90
2019-05-07T21:48:10.597Z,59.60
2019-05-07T21:54:18.634Z,59.40
2019-05-07T21:57:16.999Z,58.90
2019-05-07T21:59:46.992Z,59.80
2019-05-07T22:02:22.098Z,58.70
2019-05-07T22:04:54.139Z,59.80
2019-05-07T22:07:26.243Z,59.50
2019-05-07T22:09:57.060Z,59.50
2019-05-07T22:12:27.369Z,59.40
2019-05-07T22:14:57.733Z,59.20
2019-05-07T22:17:27.997Z,58.50
2019-05-07T22:19:58.623Z,59.20
2019-05-07T22:22:34.664Z,58.90
2019-05-07T22:25:05.417Z,59.00
2019-05-07T22:31:49.822Z,60.90
2019-05-07T22:34:42.296Z,61.40
2019-05-07T22:37:12.697Z,62.90
2019-05-07T22:39:43.277Z,63.40
2019-05-07T22:42:13.777Z,63.10
2019-05-07T22:44:43.966Z,61.70
2019-05-07T22:47:22.603Z,61.90
2019-05-07T22:49:54.059Z,61.80
2019-05-07T22:52:24.436Z,61.90
2019-05-07T22:54:54.829Z,62.30
2019-05-07T22:57:43.972Z,60.70
2019-05-07T23:00:22.783Z,60.80
2019-05-07T23:02:56.518Z,59.80
2019-05-07T23:05:26.685Z,59.70
2019-05-07T23:07:58.008Z,59.40
2019-05-07T23:10:33.007Z,60.00
2019-05-07T23:13:02.910Z,60.10
2019-05-07T23:15:45.466Z,60.30
2019-05-07T23:18:15.597Z,60.20
2019-05-07T23:20:46.309Z,60.10
2019-05-07T23:23:21.857Z,60.10
2019-05-07T23:25:52.791Z,59.90
2019-05-07T23:28:24.096Z,59.60
2019-05-07T23:30:54.968Z,60.00
2019-05-07T23:33:28.058Z,60.10
2019-05-07T23:35:57.943Z,59.90
2019-05-07T23:38:29.005Z,60.20
2019-05-07T23:41:08.825Z,60.80
2019-05-07T23:43:42.381Z,60.50
2019-05-07T23:46:13.084Z,60.30
2019-05-07T23:48:44.956Z,61.00
2019-05-07T23:51:15.778Z,60.80
2019-05-07T23:53:46.352Z,61.20
2019-05-07T23:56:16.353Z,60.80
2019-05-07T23:58:47.316Z,60.40
